createdAt,value
2019-05-05T00:01:39.314Z,6.17
2019-05-05T00:06:44.889Z,6.02
2019-05-05T00:11:54.777Z,5.83
2019-05-05T00:17:02.148Z,5.95
2019-05-05T00:22:07.261Z,5.74
2019-05-05T00:27:14.825Z,5.69
2019-05-05T00:32:19.624Z,5.51
2019-05-05T00:37:25.770Z,5.54
2019-05-05T00:42:32.606Z,5.45
2019-05-05T00:47:42.082Z,5.36
2019-05-05T00:52:47.289Z,5.32
2019-05-05T00:57:54.660Z,5.19
2019-05-05T01:02:59.890Z,5.04
2019-05-05T01:08:07.218Z,5.11
2019-05-05T01:13:12.569Z,4.99
2019-05-05T01:18:18.044Z,4.97
2019-05-05T01:23:24.372Z,4.88
2019-05-05T01:28:31.497Z,4.73
2019-05-05T01:33:39.642Z,4.76
2019-05-05T01:38:46.464Z,4.75
2019-05-05T01:43:51.776Z,4.67
2019-05-05T01:48:57.172Z,4.59
2019-05-05T01:54:02.534Z,4.55
2019-05-05T01:59:08.009Z,4.35
2019-05-05T02:04:14.489Z,4.39
2019-05-05T02:09:20.133Z,4.35
2019-05-05T02:14:25.815Z,4.44
2019-05-05T02:19:31.164Z,4.55
2019-05-05T02:24:37.504Z,4.59
2019-05-05T02:29:44.725Z,4.69
2019-05-05T02:34:57.730Z,4.54
2019-05-05T02:40:07.350Z,4.44
2019-05-05T02:45:15.509Z,4.40
2019-05-05T02:50:24.938Z,4.42
2019-05-05T02:55:32.262Z,4.45
2019-05-05T03:00:43.757Z,4.34
2019-05-05T03:05:49.571Z,4.28
2019-05-05T03:10:55.780Z,4.26
2019-05-05T03:16:23.751Z,4.08
2019-05-05T03:21:29.487Z,4.09
2019-05-05T03:26:34.883Z,4.20
2019-05-05T03:31:40.916Z,4.23
2019-05-05T03:36:46.812Z,4.21
2019-05-05T03:42:08.782Z,4.19
2019-05-05T03:47:14.745Z,4.35
2019-05-05T03:52:20.487Z,4.54
2019-05-05T03:57:26.572Z,4.70
2019-05-05T04:02:34.139Z,4.71
2019-05-05T04:07:40.587Z,4.86
2019-05-05T04:12:46.651Z,4.96
2019-05-05T04:17:54.163Z,5.04
2019-05-05T04:22:59.430Z,5.20
2019-05-05T04:28:05.031Z,5.26
2019-05-05T04:33:10.821Z,5.27
2019-05-05T04:38:16.205Z,5.45
2019-05-05T04:43:21.478Z,5.58
2019-05-05T04:48:31.239Z,5.75
2019-05-05T04:53:54.594Z,5.97
2019-05-05T04:58:59.950Z,6.08
2019-05-05T05:04:24.310Z,6.12
2019-05-05T05:09:29.682Z,6.10
2019-05-05T05:14:35.028Z,6.20
2019-05-05T05:19:40.313Z,6.44
2019-05-05T05:24:45.599Z,6.26
2019-05-05T05:29:50.781Z,6.26
2019-05-05T05:34:55.999Z,6.58
2019-05-05T05:40:03.939Z,6.63
2019-05-05T05:45:23.764Z,6.72
2019-05-05T05:50:33.956Z,6.75
2019-05-05T05:55:39.379Z,6.82
2019-05-05T06:00:44.739Z,6.99
2019-05-05T06:05:50.075Z,6.84
2019-05-05T06:10:55.582Z,6.86
2019-05-05T06:16:00.996Z,6.82
2019-05-05T06:21:07.234Z,7.01
2019-05-05T06:26:15.105Z,7.27
2019-05-05T06:31:19.456Z,7.38
2019-05-05T06:36:24.615Z,7.36
2019-05-05T06:41:31.696Z,7.58
2019-05-05T06:46:45.034Z,7.72
2019-05-05T06:51:50.337Z,7.78
2019-05-05T06:56:55.844Z,7.88
2019-05-05T07:02:04.244Z,7.93
2019-05-05T07:07:09.456Z,8.00
2019-05-05T07:12:14.665Z,8.01
2019-05-05T07:17:20.263Z,7.98
2019-05-05T07:22:25.486Z,8.14
2019-05-05T07:27:30.902Z,8.38
2019-05-05T07:32:36.240Z,8.24
2019-05-05T07:37:43.543Z,8.31
2019-05-05T07:42:48.294Z,8.39
2019-05-05T07:47:54.318Z,8.42
2019-05-05T07:53:11.392Z,8.33
2019-05-05T07:58:06.742Z,8.38
2019-05-05T08:03:14.228Z,8.41
2019-05-05T08:08:19.043Z,9.03
2019-05-05T08:13:24.502Z,9.03
2019-05-05T08:18:31.537Z,9.58
2019-05-05T08:23:44.852Z,10.04
2019-05-05T08:28:58.321Z,10.03
2019-05-05T08:34:03.940Z,9.74
2019-05-05T08:39:09.535Z,9.59
2019-05-05T08:44:17.907Z,10.13
2019-05-05T08:49:24.245Z,10.45
2019-05-05T08:54:29.589Z,10.39
2019-05-05T08:59:34.804Z,10.36
2019-05-05T09:04:39.955Z,10.28
2019-05-05T09:09:45.393Z,10.14
2019-05-05T09:14:50.750Z,10.65
2019-05-05T09:19:56.036Z,11.10
2019-05-05T09:25:04.322Z,10.87
2019-05-05T09:30:14.242Z,10.61
2019-05-05T09:35:19.511Z,10.14
2019-05-05T09:40:36.604Z,9.89
2019-05-05T09:45:44.066Z,10.42
2019-05-05T09:50:48.997Z,10.74
2019-05-05T09:55:55.792Z,10.84
2019-05-05T10:01:01.004Z,10.43
2019-05-05T10:06:06.774Z,10.45
2019-05-05T10:11:16.368Z,10.28
2019-05-05T10:16:20.325Z,10.06
2019-05-05T10:21:25.419Z,9.91
2019-05-05T10:26:30.976Z,10.44
2019-05-05T10:31:36.335Z,11.06
2019-05-05T10:36:41.464Z,11.04
2019-05-05T10:41:46.767Z,10.89
2019-05-05T10:46:53.933Z,11.10
2019-05-05T10:51:58.950Z,10.96
2019-05-05T10:57:04.256Z,11.16
2019-05-05T11:02:09.905Z,11.16
2019-05-05T11:07:15.102Z,11.65
2019-05-05T11:12:20.776Z,11.71
2019-05-05T11:17:25.909Z,11.87
2019-05-05T11:22:31.490Z,12.24
2019-05-05T11:27:36.681Z,11.91
2019-05-05T11:32:53.745Z,11.88
2019-05-05T11:37:59.202Z,11.18
2019-05-05T11:43:04.754Z,10.93
2019-05-05T11:48:10.087Z,11.16
2019-05-05T11:53:15.278Z,11.68
2019-05-05T11:58:20.567Z,11.77
2019-05-05T12:03:25.863Z,11.53
2019-05-05T12:08:31.021Z,11.11
2019-05-05T12:13:36.493Z,11.74
2019-05-05T12:18:42.093Z,11.87
2019-05-05T12:23:47.375Z,12.35
2019-05-05T12:29:00.324Z,12.78
2019-05-05T12:34:05.699Z,12.79
2019-05-05T12:39:14.187Z,12.24
2019-05-05T12:44:23.495Z,12.02
2019-05-05T12:49:28.538Z,11.78
2019-05-05T12:54:34.015Z,12.15
2019-05-05T12:59:39.517Z,12.35
2019-05-05T13:04:45.428Z,13.50
2019-05-05T13:09:50.855Z,15.22
2019-05-05T13:14:56.268Z,16.15
2019-05-05T13:20:03.122Z,13.80
2019-05-05T13:25:19.082Z,13.82
2019-05-05T13:30:24.623Z,12.82
2019-05-05T13:35:29.766Z,12.79
2019-05-05T13:40:35.111Z,12.25
2019-05-05T13:45:57.181Z,12.48
2019-05-05T13:51:04.344Z,13.48
2019-05-05T13:56:12.600Z,15.75
2019-05-05T14:01:18.304Z,16.78
2019-05-05T14:06:24.220Z,18.97
2019-05-05T14:11:29.408Z,20.25
2019-05-05T14:16:34.867Z,20.25
2019-05-05T14:21:40.310Z,20.42
2019-05-05T14:26:45.672Z,20.36
2019-05-05T14:31:53.573Z,19.73
2019-05-05T14:37:15.883Z,19.30
2019-05-05T14:42:21.263Z,20.26
2019-05-05T14:47:26.498Z,20.11
2019-05-05T14:52:31.687Z,20.37
2019-05-05T14:57:37.110Z,19.56
2019-05-05T15:02:43.874Z,18.91
2019-05-05T15:08:06.480Z,17.94
2019-05-05T15:13:11.584Z,18.34
2019-05-05T15:18:17.089Z,17.79
2019-05-05T15:23:24.044Z,16.25
2019-05-05T15:28:29.256Z,14.58
2019-05-05T15:33:34.962Z,15.59
2019-05-05T15:38:40.356Z,15.82
2019-05-05T15:43:45.749Z,15.93
2019-05-05T15:48:51.387Z,15.78
2019-05-05T15:53:56.956Z,15.91
2019-05-05T15:59:04.740Z,15.66
2019-05-05T16:04:10.408Z,15.50
2019-05-05T16:09:15.822Z,14.90
2019-05-05T16:14:23.714Z,15.09
2019-05-05T16:19:45.945Z,14.54
2019-05-05T16:25:07.152Z,13.60
2019-05-05T16:30:17.036Z,13.35
2019-05-05T16:35:23.772Z,12.97
2019-05-05T16:40:29.326Z,12.69
2019-05-05T16:45:34.762Z,12.37
2019-05-05T16:50:40.168Z,11.87
2019-05-05T16:55:46.998Z,11.74
2019-05-05T17:00:54.322Z,11.68
2019-05-05T17:05:59.627Z,11.65
2019-05-05T17:11:04.997Z,11.68
2019-05-05T17:16:21.248Z,11.63
2019-05-05T17:21:28.467Z,11.60
2019-05-05T17:26:35.501Z,11.30
2019-05-05T17:31:40.946Z,11.07
2019-05-05T17:36:46.236Z,11.00
2019-05-05T17:41:53.953Z,11.05
2019-05-05T17:47:05.043Z,10.82
2019-05-05T17:52:15.083Z,10.84
2019-05-05T17:57:20.204Z,10.62
2019-05-05T18:02:25.357Z,10.56
2019-05-05T18:07:38.297Z,10.39
2019-05-05T18:12:49.063Z,10.28
2019-05-05T18:17:54.408Z,10.16
2019-05-05T18:23:00.748Z,10.18
2019-05-05T18:28:16.916Z,9.90
2019-05-05T18:33:14.512Z,9.87
2019-05-05T18:38:19.782Z,9.73
2019-05-05T18:43:28.956Z,9.62
2019-05-05T18:48:34.652Z,9.55
2019-05-05T18:53:55.060Z,9.47
2019-05-05T18:59:06.445Z,9.40
2019-05-05T19:04:13.623Z,9.16
2019-05-05T19:09:24.831Z,9.04
2019-05-05T19:14:30.705Z,9.04
2019-05-05T19:19:38.788Z,8.84
2019-05-05T19:24:44.208Z,8.66
2019-05-05T19:29:49.703Z,8.49
2019-05-05T19:34:54.953Z,8.25
2019-05-05T19:40:00.191Z,8.15
2019-05-05T19:45:07.936Z,8.17
2019-05-05T19:50:17.311Z,7.98
2019-05-05T19:55:22.693Z,7.85
2019-05-05T20:00:28.417Z,7.62
2019-05-05T20:05:34.194Z,7.33
2019-05-05T20:10:39.857Z,7.20
2019-05-05T20:15:46.765Z,7.24
2019-05-05T20:21:03.650Z,7.30
2019-05-05T20:25:59.426Z,7.19
2019-05-05T20:31:04.843Z,7.09
2019-05-05T20:36:14.375Z,6.88
2019-05-05T20:41:21.643Z,6.75
2019-05-05T20:46:27.302Z,6.63
2019-05-05T20:51:33.966Z,6.70
2019-05-05T20:56:40.417Z,6.62
2019-05-05T21:01:45.579Z,6.48
2019-05-05T21:06:50.797Z,6.33
2019-05-05T21:11:56.038Z,6.42
2019-05-05T21:17:01.502Z,6.30
2019-05-05T21:22:24.817Z,6.24
2019-05-05T21:27:29.969Z,6.12
2019-05-05T21:32:35.493Z,5.98
2019-05-05T21:37:40.855Z,6.05
2019-05-05T21:42:46.247Z,5.95
2019-05-05T21:47:51.576Z,5.99
2019-05-05T21:53:14.114Z,5.89
2019-05-05T21:58:23.307Z,5.85
2019-05-05T22:03:35.622Z,5.88
2019-05-05T22:08:41.173Z,5.93
2019-05-05T22:13:46.632Z,5.81
2019-05-05T22:18:54.059Z,5.76
2019-05-05T22:24:19.766Z,5.61
2019-05-05T22:29:25.218Z,5.61
2019-05-05T22:34:30.604Z,5.61
2019-05-05T22:39:35.750Z,5.59
2019-05-05T22:44:40.980Z,5.52
2019-05-05T22:49:46.452Z,5.46
2019-05-05T22:54:51.919Z,5.39
2019-05-05T22:59:57.242Z,5.41
2019-05-05T23:05:06.938Z,5.35
2019-05-05T23:10:14.087Z,5.32
2019-05-05T23:15:25.248Z,5.23
2019-05-05T23:20:57.191Z,5.04
2019-05-05T23:26:04.128Z,4.95
2019-05-05T23:31:09.357Z,5.00
2019-05-05T23:36:14.923Z,4.98
2019-05-05T23:41:23.753Z,4.90
2019-05-05T23:46:28.815Z,5.00
2019-05-05T23:51:34.730Z,5.10
2019-05-05T23:56:40.108Z,4.92
